Time;durP1;ratioP1;P1;durP2;ratioP2;P2;SDS_P1;SDS_P2;PMS_P1;PMS_P2;Temp;Humidity;BMP_temperature;BMP_pressure;BME280_temperature;BME280_humidity;BME280_pressure;Samples;Min_cycle;Max_cycle;Signal;HPM_P1;HPM_P2
2023/01/25 00:00:27;;;;;;;30.50;19.33;;;0.70;99.90;;;-144.05;67.93;125687.94;4999126;28;20053;-81
2023/01/25 00:02:52;;;;;;;30.50;20.10;;;0.70;99.90;;;-144.05;68.47;125687.94;5014854;28;20083;-81
2023/01/25 00:05:18;;;;;;;30.02;19.13;;;0.70;99.90;;;-144.05;68.36;125687.94;5015357;28;20096;-80
2023/01/25 00:07:44;;;;;;;29.00;18.92;;;0.80;99.90;;;-144.05;68.66;125687.94;4997451;28;20057;-79
2023/01/25 00:10:10;;;;;;;32.13;18.80;;;0.70;99.90;;;-144.05;69.33;125687.94;5014457;28;20092;-80
2023/01/25 00:12:36;;;;;;;27.20;18.08;;;0.70;99.90;;;-144.05;69.08;125687.94;5015115;28;20033;-80
2023/01/25 00:15:02;;;;;;;29.38;18.35;;;0.60;99.90;;;-144.05;68.77;125687.94;4997282;28;20034;-79
2023/01/25 00:17:28;;;;;;;29.10;18.38;;;0.60;99.90;;;-144.05;68.91;125687.94;5014775;28;20034;-80
2023/01/25 00:19:54;;;;;;;29.00;17.58;;;0.60;99.90;;;-144.05;68.63;125687.94;5014899;28;20034;-80
2023/01/25 00:22:19;;;;;;;27.35;18.23;;;0.60;99.90;;;-144.05;68.71;125687.94;4997040;28;20030;-82
2023/01/25 00:24:45;;;;;;;28.08;18.27;;;0.60;99.90;;;-144.05;68.86;125687.94;5014368;28;20489;-80
2023/01/25 00:27:11;;;;;;;29.70;18.70;;;0.60;99.90;;;-144.05;68.14;125687.94;5014699;28;20030;-82
2023/01/25 00:29:37;;;;;;;26.80;17.48;;;0.60;99.90;;;-144.05;67.82;125687.94;5014225;28;20117;-79
2023/01/25 00:32:11;;;;;;;26.45;17.98;;;0.60;99.90;;;-144.05;68.06;125687.94;4996939;28;20030;-79
2023/01/25 00:34:47;;;;;;;30.42;19.17;;;0.60;99.90;;;-144.05;67.74;125687.94;4996907;28;20034;-81
2023/01/25 00:37:43;;;;;;;29.95;18.17;;;0.60;99.90;;;-144.05;67.49;125687.94;5014222;28;20393;-80
2023/01/25 00:40:12;;;;;;;28.15;18.02;;;0.60;99.90;;;-144.05;67.76;125687.94;4996928;28;20381;-79
2023/01/25 00:42:38;;;;;;;28.20;18.25;;;0.70;99.90;;;-144.05;67.76;125687.94;5013829;28;20034;-79
2023/01/25 00:45:05;;;;;;;31.05;19.98;;;0.60;99.90;;;-144.05;67.73;125687.94;5014200;28;20026;-80
2023/01/25 00:47:31;;;;;;;31.48;19.30;;;0.60;99.90;;;-144.05;67.48;125687.94;4996631;28;20029;-82
2023/01/25 00:49:57;;;;;;;33.80;19.85;;;0.60;99.90;;;-144.05;67.50;125687.94;4997013;28;20025;-80
2023/01/25 00:52:23;;;;;;;36.28;21.20;;;0.60;99.90;;;-144.05;67.60;125687.94;5014582;28;20034;-81
2023/01/25 00:54:48;;;;;;;33.13;19.33;;;0.60;99.90;;;-144.05;67.66;125687.94;5014776;28;20111;-80
2023/01/25 00:57:14;;;;;;;34.45;20.85;;;0.60;99.90;;;-144.05;68.05;125687.94;5014907;28;20109;-80
2023/01/25 00:59:43;;;;;;;35.33;20.90;;;0.60;99.90;;;-144.05;67.97;125687.94;4996240;28;20106;-80
2023/01/25 01:02:11;;;;;;;31.25;19.73;;;0.60;99.90;;;-144.05;68.18;125687.94;4996108;28;20072;-81
2023/01/25 01:04:37;;;;;;;30.67;19.77;;;0.60;99.90;;;-144.05;68.13;125687.94;4996683;28;20096;-81
2023/01/25 01:07:03;;;;;;;29.70;19.05;;;0.60;99.90;;;-144.05;67.85;125687.94;4996080;28;20033;-81
2023/01/25 01:09:29;;;;;;;30.70;19.23;;;0.60;99.90;;;-144.05;68.10;125687.94;4996473;28;20080;-80
2023/01/25 01:11:55;;;;;;;30.35;19.23;;;0.60;99.90;;;-144.05;68.09;125687.94;5013421;28;20032;-80
2023/01/25 01:14:22;;;;;;;32.60;19.67;;;0.60;99.90;;;-144.05;68.31;125687.94;5013554;28;20537;-82
2023/01/25 01:16:48;;;;;;;33.78;20.73;;;0.60;99.90;;;-144.05;68.33;125687.94;5013343;28;20511;-80
2023/01/25 01:19:14;;;;;;;31.27;20.70;;;0.60;99.90;;;-144.05;68.25;125687.94;4995633;28;20030;-82
2023/01/25 01:21:41;;;;;;;34.33;20.75;;;0.60;99.90;;;-144.05;68.29;125687.94;4995776;28;20030;-82
2023/01/25 01:24:10;;;;;;;34.20;21.48;;;0.60;99.90;;;-144.05;68.60;125687.94;4995509;28;20063;-81
2023/01/25 01:26:36;;;;;;;33.70;20.65;;;0.60;99.90;;;-144.05;68.46;125687.94;5013135;28;20037;-80
2023/01/25 01:29:02;;;;;;;33.13;20.60;;;0.60;99.90;;;-144.05;68.24;125687.94;4994473;28;20416;-81
2023/01/25 01:31:28;;;;;;;33.03;20.25;;;0.60;99.90;;;-144.05;68.69;125687.94;5012733;28;20041;-82
2023/01/25 01:33:57;;;;;;;32.67;20.92;;;0.50;99.90;;;-144.05;69.03;125687.94;4995644;28;20377;-81
2023/01/25 01:36:28;;;;;;;36.00;21.55;;;0.50;99.90;;;-144.05;69.14;125687.94;4995635;28;20335;-81
2023/01/25 01:38:54;;;;;;;33.35;20.25;;;0.50;99.90;;;-144.05;69.44;125687.94;4995814;28;20405;-80
2023/01/25 01:41:21;;;;;;;31.52;20.52;;;0.50;99.90;;;-144.05;69.34;125687.94;5013187;28;20128;-80
2023/01/25 01:43:47;;;;;;;38.30;21.25;;;0.50;99.90;;;-144.05;69.55;125687.94;4995622;28;20064;-79
2023/01/25 01:46:38;;;;;;;36.25;21.65;;;0.40;99.90;;;-144.05;69.39;125687.94;5013256;28;20025;-80
2023/01/25 01:49:21;;;;;;;37.08;22.65;;;0.40;99.90;;;-144.05;69.50;125687.94;5012960;28;20478;-82
2023/01/25 01:51:57;;;;;;;31.85;19.92;;;0.40;99.90;;;-144.05;69.68;125687.94;5013579;28;20058;-80
2023/01/25 01:54:35;;;;;;;34.10;21.10;;;0.40;99.90;;;-144.05;69.30;125687.94;5013441;28;20474;-81
2023/01/25 01:57:17;;;;;;;38.22;22.02;;;0.40;99.90;;;-144.05;69.65;125687.94;5013195;28;20033;-82
2023/01/25 01:59:58;;;;;;;40.05;22.42;;;0.40;99.90;;;-144.05;69.67;125687.94;4995186;28;20577;-81
2023/01/25 02:02:26;;;;;;;36.28;20.45;;;0.40;99.90;;;-144.05;69.54;125687.94;5012528;28;20076;-80
2023/01/25 02:04:59;;;;;;;37.78;22.13;;;0.40;99.90;;;-144.05;69.27;125687.94;4995824;28;20563;-82
2023/01/25 02:07:38;;;;;;;38.88;22.52;;;0.40;99.90;;;-144.05;69.44;125687.94;4996211;28;20041;-80
2023/01/25 02:10:11;;;;;;;36.20;22.45;;;0.40;99.90;;;-144.05;69.64;125687.94;5013960;28;20030;-81
2023/01/25 02:12:40;;;;;;;35.42;20.38;;;0.40;99.90;;;-144.05;69.59;125687.94;5012988;28;20030;-82
2023/01/25 02:15:07;;;;;;;37.13;22.10;;;0.40;99.90;;;-144.05;70.40;125687.94;5013721;28;20367;-79
2023/01/25 02:17:37;;;;;;;38.15;20.17;;;0.30;99.90;;;-144.05;70.41;125687.94;5013360;28;20080;-79
2023/01/25 02:20:31;;;;;;;36.92;21.02;;;0.20;99.90;;;-144.05;70.25;125687.94;5012651;28;20101;-81
2023/01/25 02:23:27;;;;;;;34.95;20.33;;;0.20;99.90;;;-144.05;70.36;125687.94;4995984;28;20064;-82
2023/01/25 02:25:59;;;;;;;38.13;21.13;;;0.20;99.90;;;-144.05;70.56;125687.94;4995215;28;20128;-81
2023/01/25 02:28:55;;;;;;;35.90;21.08;;;0.20;99.90;;;-144.05;70.59;125687.94;4995002;28;20068;-82
2023/01/25 02:31:21;;;;;;;36.95;21.75;;;0.20;99.90;;;-144.05;70.20;125687.94;4994616;28;20026;-81
2023/01/25 02:33:47;;;;;;;35.15;20.77;;;0.20;99.90;;;-144.05;70.48;125687.94;5012281;28;20088;-80
2023/01/25 02:36:26;;;;;;;36.13;21.45;;;0.20;99.90;;;-144.05;70.76;125687.94;4995382;28;20437;-80
2023/01/25 02:39:04;;;;;;;35.15;21.40;;;0.20;99.90;;;-144.05;70.26;125687.94;5013116;28;20034;-80
2023/01/25 02:41:37;;;;;;;36.60;21.05;;;0.10;99.90;;;-144.05;70.63;125687.94;5016419;28;20029;-82
2023/01/25 02:44:11;;;;;;;35.83;21.55;;;0.10;99.90;;;-144.05;70.49;125687.94;4999166;28;20440;-82
2023/01/25 02:46:40;;;;;;;37.95;20.88;;;0.10;99.90;;;-144.05;69.94;125687.94;4999052;28;20382;-79
2023/01/25 02:49:09;;;;;;;34.17;20.58;;;0.00;99.90;;;-144.05;69.96;125687.94;4998639;28;20040;-81
2023/01/25 02:51:41;;;;;;;36.72;21.23;;;0.10;99.90;;;-144.05;70.09;125687.94;5016770;28;20036;-81
2023/01/25 02:54:11;;;;;;;37.92;21.90;;;0.10;99.90;;;-144.05;69.77;125687.94;4998659;28;20030;-80
2023/01/25 02:56:39;;;;;;;34.72;21.38;;;0.00;99.90;;;-144.05;69.96;125687.94;4997196;28;20065;-80
2023/01/25 02:59:06;;;;;;;40.78;23.20;;;0.00;99.90;;;-144.05;70.17;125687.94;4996950;28;20100;-79
2023/01/25 03:01:39;;;;;;;34.03;21.08;;;0.00;99.90;;;-144.05;70.07;125687.94;4997129;28;20493;-80
2023/01/25 03:04:06;;;;;;;36.10;21.88;;;0.00;99.90;;;-144.05;70.37;125687.94;5015025;28;20432;-80
2023/01/25 03:06:34;;;;;;;36.58;22.20;;;0.00;99.90;;;-144.05;70.72;125687.94;4997403;28;20112;-80
2023/01/25 03:09:01;;;;;;;33.50;20.35;;;0.00;99.90;;;-144.05;71.23;125687.94;4996851;28;20508;-80
2023/01/25 03:11:27;;;;;;;34.53;20.30;;;0.10;99.90;;;-144.05;71.23;125687.94;5014989;28;20092;-82
2023/01/25 03:13:53;;;;;;;35.97;21.17;;;0.00;99.90;;;-144.05;70.86;125687.94;5016462;28;20034;-81
2023/01/25 03:16:19;;;;;;;34.83;20.05;;;0.00;99.90;;;-144.05;70.98;125687.94;4999160;28;20049;-82
2023/01/25 03:18:45;;;;;;;38.15;20.85;;;0.00;99.90;;;-144.05;70.92;125687.94;5016559;28;20040;-81
2023/01/25 03:21:16;;;;;;;39.00;22.05;;;0.00;99.90;;;-144.05;71.15;125687.94;4999161;28;20029;-81
2023/01/25 03:23:45;;;;;;;31.77;19.27;;;-0.10;99.90;;;-144.05;71.82;125687.94;4998456;28;20060;-79
2023/01/25 03:26:18;;;;;;;38.05;21.02;;;-0.10;99.90;;;-144.05;71.39;125687.94;4998928;28;20032;-82
2023/01/25 03:28:44;;;;;;;37.97;21.98;;;-0.10;99.90;;;-144.05;70.81;125687.94;4998502;28;20379;-81
2023/01/25 03:31:14;;;;;;;36.13;21.40;;;-0.10;99.90;;;-144.05;70.64;125687.94;5017092;28;20033;-79
2023/01/25 03:33:42;;;;;;;35.85;19.85;;;-0.10;99.90;;;-144.05;70.45;125687.94;5016820;28;20030;-82
2023/01/25 03:36:08;;;;;;;39.00;20.58;;;-0.10;99.90;;;-144.05;70.65;125687.94;4998002;28;20472;-82
2023/01/25 03:38:35;;;;;;;34.60;20.02;;;-0.10;99.90;;;-144.05;70.49;125687.94;4998381;28;20037;-82
2023/01/25 03:41:03;;;;;;;36.88;20.25;;;-0.10;99.90;;;-144.05;70.48;125687.94;4998680;28;20045;-81
2023/01/25 03:43:30;;;;;;;39.63;22.90;;;-0.10;99.90;;;-144.05;70.63;125687.94;5016291;28;20030;-81
2023/01/25 03:46:00;;;;;;;37.22;20.88;;;-0.10;99.90;;;-144.05;70.74;125687.94;5018686;28;20030;-82
2023/01/25 03:48:28;;;;;;;40.47;22.90;;;-0.10;99.90;;;-144.05;70.88;125687.94;5018152;28;20161;-81
2023/01/25 03:50:58;;;;;;;37.72;22.00;;;-0.10;99.90;;;-144.05;71.54;125687.94;4999686;28;20075;-81
2023/01/25 03:53:28;;;;;;;37.63;21.45;;;-0.10;99.90;;;-144.05;71.54;125687.94;5017025;28;20117;-81
2023/01/25 03:56:07;;;;;;;40.22;22.23;;;-0.20;99.90;;;-144.05;71.50;125687.94;4998580;28;20029;-81
2023/01/25 03:58:35;;;;;;;42.22;22.60;;;-0.20;99.90;;;-144.05;71.94;125687.94;5015433;28;20113;-82
2023/01/25 04:01:04;;;;;;;35.78;20.45;;;-0.20;99.90;;;-144.05;71.53;125687.94;5015799;28;20103;-82
2023/01/25 04:03:31;;;;;;;36.55;20.52;;;-0.20;99.90;;;-144.05;70.93;125687.94;4998963;28;20022;-81
2023/01/25 04:05:59;;;;;;;40.13;22.45;;;-0.20;99.90;;;-144.05;70.58;125687.94;4998651;28;20037;-82
2023/01/25 04:08:26;;;;;;;38.70;21.02;;;-0.20;99.90;;;-144.05;70.64;125687.94;5016891;28;20145;-81
2023/01/25 04:11:03;;;;;;;42.30;22.73;;;-0.20;99.90;;;-144.05;70.93;125687.94;5016943;28;20037;-83
2023/01/25 04:13:29;;;;;;;39.15;21.88;;;-0.20;99.90;;;-144.05;71.10;125687.94;5020756;28;20030;-82
2023/01/25 04:15:56;;;;;;;39.22;22.10;;;-0.10;99.90;;;-144.05;71.20;125687.94;5007524;28;20041;-83
2023/01/25 04:18:22;;;;;;;40.83;21.42;;;-0.10;99.90;;;-144.05;71.04;125687.94;5008874;28;20049;-81
2023/01/25 04:20:53;;;;;;;39.22;22.13;;;-0.10;99.90;;;-144.05;71.32;125687.94;5028424;28;20044;-82
2023/01/25 04:23:19;;;;;;;38.50;22.88;;;-0.10;99.90;;;-144.05;71.56;125687.94;5025141;28;20060;-82
2023/01/25 04:26:08;;;;;;;39.42;22.73;;;-0.10;99.90;;;-144.05;71.73;125687.94;5033163;28;20053;-81
2023/01/25 04:28:34;;;;;;;39.75;22.58;;;-0.10;99.90;;;-144.05;71.85;125687.94;5008995;28;20572;-80
2023/01/25 04:31:02;;;;;;;38.95;22.50;;;-0.10;99.90;;;-144.05;72.04;125687.94;5000632;28;20104;-81
2023/01/25 04:33:29;;;;;;;40.72;23.33;;;-0.10;99.90;;;-144.05;72.03;125687.94;4999306;28;20033;-83
2023/01/25 04:35:54;;;;;;;42.50;22.55;;;-0.10;99.90;;;-144.05;72.24;125687.94;5015514;28;20034;-81
2023/01/25 04:38:20;;;;;;;42.33;22.50;;;-0.10;99.90;;;-144.05;72.28;125687.94;5014989;28;20057;-79
2023/01/25 04:40:46;;;;;;;39.10;20.75;;;-0.20;99.90;;;-144.05;73.26;125687.94;4997512;28;20037;-80
2023/01/25 04:43:18;;;;;;;37.03;21.52;;;-0.20;99.90;;;-144.05;73.45;125687.94;5017297;23;20053;-78
2023/01/25 04:45:46;;;;;;;35.88;20.35;;;-0.20;99.90;;;-144.05;74.39;125687.94;4995045;28;20070;-79
2023/01/25 04:48:13;;;;;;;44.15;22.38;;;-0.20;99.90;;;-144.05;74.22;125687.94;5013072;28;20474;-81
2023/01/25 04:50:42;;;;;;;39.60;20.75;;;-0.30;99.90;;;-144.05;73.87;125687.94;5014921;28;20469;-81
2023/01/25 04:53:10;;;;;;;39.72;21.52;;;-0.20;99.90;;;-144.05;73.86;125687.94;4994689;28;20018;-80
2023/01/25 04:55:36;;;;;;;44.45;23.73;;;-0.20;99.90;;;-144.05;73.97;125687.94;4995053;28;20037;-81
2023/01/25 04:58:03;;;;;;;38.63;20.55;;;-0.20;99.90;;;-144.05;74.15;125687.94;5012045;28;20033;-80
2023/01/25 05:00:30;;;;;;;42.08;21.70;;;-0.20;99.90;;;-144.05;74.01;125687.94;5012293;28;20026;-79
2023/01/25 05:02:56;;;;;;;36.40;20.98;;;-0.20;99.90;;;-144.05;74.19;125687.94;4993966;28;20036;-79
2023/01/25 05:05:22;;;;;;;38.95;21.25;;;-0.20;99.90;;;-144.05;74.20;125687.94;4994763;28;20026;-80
2023/01/25 05:07:47;;;;;;;41.63;22.70;;;-0.20;99.90;;;-144.05;74.07;125687.94;5013217;28;20033;-80
2023/01/25 05:10:14;;;;;;;41.42;22.50;;;-0.20;99.90;;;-144.05;73.91;125687.94;5004492;28;20088;-79
2023/01/25 05:12:40;;;;;;;41.75;22.67;;;-0.10;99.90;;;-144.05;74.12;125687.94;5012087;28;20041;-79
2023/01/25 05:15:07;;;;;;;36.80;21.13;;;-0.10;99.90;;;-144.05;74.42;125687.94;5012056;28;20480;-80
2023/01/25 05:17:33;;;;;;;40.30;20.70;;;-0.10;99.90;;;-144.05;74.06;125687.94;5012106;28;20057;-81
2023/01/25 05:19:58;;;;;;;40.95;21.60;;;-0.10;99.90;;;-144.05;74.48;125687.94;4994321;28;20121;-80
2023/01/25 05:22:24;;;;;;;41.22;20.52;;;-0.10;99.90;;;-144.05;74.36;125687.94;5012103;28;20022;-81
2023/01/25 05:24:50;;;;;;;41.75;21.52;;;-0.10;99.90;;;-144.05;74.66;125687.94;4994157;28;20401;-79
2023/01/25 05:27:19;;;;;;;39.92;19.92;;;-0.10;99.90;;;-144.05;75.41;125687.94;4994347;28;20026;-81
2023/01/25 05:29:46;;;;;;;39.63;20.83;;;-0.10;99.90;;;-144.05;75.17;125687.94;5011690;28;20052;-80
2023/01/25 05:32:17;;;;;;;36.03;20.20;;;-0.10;99.90;;;-144.05;75.48;125687.94;5012669;28;20030;-79
2023/01/25 05:34:44;;;;;;;36.38;18.70;;;-0.10;99.90;;;-144.05;75.25;125687.94;5011972;28;20544;-80
2023/01/25 05:37:17;;;;;;;33.63;18.25;;;-0.10;99.90;;;-144.05;75.26;125687.94;4994082;28;20072;-78
2023/01/25 05:39:43;;;;;;;37.13;19.40;;;-0.10;99.90;;;-144.05;75.23;125687.94;5026800;28;20072;-81
2023/01/25 05:42:17;;;;;;;34.72;16.65;;;-0.10;99.90;;;-144.05;75.27;125687.94;5024544;28;20338;-80
2023/01/25 05:44:44;;;;;;;37.05;18.17;;;-0.20;99.90;;;-144.05;75.62;125687.94;4995166;28;20444;-78
2023/01/25 05:47:16;;;;;;;36.53;18.45;;;-0.10;99.90;;;-144.05;75.66;125687.94;4996960;28;20133;-81
2023/01/25 05:49:43;;;;;;;39.75;18.15;;;-0.20;99.90;;;-144.05;75.34;125687.94;5016797;28;20034;-81
2023/01/25 05:52:16;;;;;;;35.88;18.65;;;-0.20;99.90;;;-144.05;75.47;125687.94;4995690;28;20037;-81
2023/01/25 05:54:42;;;;;;;40.67;20.30;;;-0.20;99.90;;;-144.05;75.54;125687.94;5012505;28;20033;-79
2023/01/25 05:57:09;;;;;;;41.75;19.88;;;-0.20;99.90;;;-144.05;75.25;125687.94;5013227;28;20109;-80
2023/01/25 05:59:35;;;;;;;37.55;18.00;;;-0.20;99.90;;;-144.05;74.88;125687.94;5012739;28;20184;-80
2023/01/25 06:02:01;;;;;;;34.03;16.23;;;-0.20;99.90;;;-144.05;75.13;125687.94;4995459;28;20068;-81
2023/01/25 06:04:27;;;;;;;32.17;16.48;;;-0.20;99.90;;;-144.05;75.27;125687.94;4995515;28;20097;-79
2023/01/25 06:06:52;;;;;;;37.22;16.92;;;-0.20;99.90;;;-144.05;75.49;125687.94;4995170;28;20044;-81
2023/01/25 06:09:18;;;;;;;35.92;15.60;;;-0.30;99.90;;;-144.05;75.35;125687.94;5012134;28;20137;-82
2023/01/25 06:11:45;;;;;;;30.02;14.18;;;-0.30;99.90;;;-144.05;75.90;125687.94;5012334;28;20041;-82
2023/01/25 06:14:11;;;;;;;29.23;13.98;;;-0.30;99.90;;;-144.05;76.02;125687.94;4995734;28;20076;-82
2023/01/25 06:16:37;;;;;;;31.55;15.52;;;-0.40;99.90;;;-144.05;75.84;125687.94;4998666;28;20042;-79
2023/01/25 06:19:06;;;;;;;34.95;15.95;;;-0.40;99.90;;;-144.05;75.75;125687.94;5007003;28;20044;-79
2023/01/25 06:21:36;;;;;;;33.60;15.90;;;-0.40;99.90;;;-144.05;75.83;125687.94;5017911;28;20026;-79
2023/01/25 06:24:06;;;;;;;32.38;15.20;;;-0.30;99.90;;;-144.05;75.82;125687.94;4998493;28;20037;-81
2023/01/25 06:26:32;;;;;;;37.97;15.60;;;-0.30;99.90;;;-144.05;75.99;125687.94;5016360;28;20554;-78
2023/01/25 06:28:58;;;;;;;32.85;15.95;;;-0.30;99.90;;;-144.05;75.97;125687.94;4998338;28;20037;-79
2023/01/25 06:31:24;;;;;;;37.47;17.48;;;-0.30;99.90;;;-144.05;75.90;125687.94;5016610;28;20040;-79
2023/01/25 06:33:51;;;;;;;35.35;17.88;;;-0.30;99.90;;;-144.05;76.02;125687.94;4998289;28;20444;-79
2023/01/25 06:36:20;;;;;;;38.75;17.35;;;-0.20;99.90;;;-144.05;75.95;125687.94;5016219;28;20401;-79
2023/01/25 06:38:51;;;;;;;38.20;18.02;;;-0.20;99.90;;;-144.05;75.92;125687.94;4998178;28;20029;-78
2023/01/25 06:41:19;;;;;;;40.00;18.05;;;-0.20;99.90;;;-144.05;75.91;125687.94;5016028;28;20033;-78
2023/01/25 06:43:48;;;;;;;39.90;17.90;;;-0.30;99.90;;;-144.05;76.20;125687.94;4998920;28;20034;-79
2023/01/25 06:46:14;;;;;;;40.35;16.77;;;-0.20;99.90;;;-144.05;76.22;125687.94;4998878;28;20030;-78
2023/01/25 06:48:41;;;;;;;41.15;18.27;;;-0.20;99.90;;;-144.05;76.23;125687.94;5016038;28;20038;-79
2023/01/25 06:51:12;;;;;;;39.28;17.40;;;-0.20;99.90;;;-144.05;76.32;125687.94;5016239;28;20029;-81
2023/01/25 06:53:43;;;;;;;39.22;17.45;;;-0.20;99.90;;;-144.05;76.44;125687.94;4998485;28;20026;-80
2023/01/25 06:56:20;;;;;;;40.03;18.60;;;-0.20;99.90;;;-144.05;76.27;125687.94;4998449;28;20029;-80
2023/01/25 06:58:47;;;;;;;38.63;18.90;;;-0.20;99.90;;;-144.05;76.24;125687.94;5015591;28;20096;-79
2023/01/25 07:01:21;;;;;;;47.55;19.17;;;-0.20;99.90;;;-144.05;76.05;125687.94;5016457;28;20030;-80
2023/01/25 07:03:54;;;;;;;47.35;19.77;;;-0.20;99.90;;;-144.05;76.08;125687.94;4998432;28;20502;-80
2023/01/25 07:06:22;;;;;;;44.05;18.45;;;-0.20;99.90;;;-144.05;75.65;125687.94;5016337;28;20543;-80
2023/01/25 07:08:48;;;;;;;39.58;17.38;;;-0.20;99.90;;;-144.05;75.71;125687.94;4998200;28;20033;-80
2023/01/25 07:11:17;;;;;;;39.03;18.88;;;-0.20;99.90;;;-144.05;75.55;125687.94;4998205;28;20036;-80
2023/01/25 07:13:46;;;;;;;37.92;18.33;;;-0.20;99.90;;;-144.05;75.85;125687.94;5016074;28;20025;-79
2023/01/25 07:16:19;;;;;;;41.92;18.13;;;-0.20;99.90;;;-144.05;76.05;125687.94;4997842;28;20489;-82
2023/01/25 07:18:45;;;;;;;37.65;17.23;;;-0.20;99.90;;;-144.05;75.66;125687.94;5015333;28;20114;-78
2023/01/25 07:21:22;;;;;;;37.13;18.02;;;-0.30;99.90;;;-144.05;75.86;125687.94;5015294;28;20152;-76
2023/01/25 07:23:50;;;;;;;39.90;17.30;;;-0.30;99.90;;;-144.05;76.24;125687.94;5015958;28;20032;-80
2023/01/25 07:26:24;;;;;;;37.15;16.05;;;-0.30;99.90;;;-144.05;76.18;125687.94;5014938;28;20025;-79
2023/01/25 07:28:52;;;;;;;42.80;17.45;;;-0.30;99.90;;;-144.05;76.44;125687.94;5015264;28;20404;-79
2023/01/25 07:31:20;;;;;;;43.88;18.60;;;-0.20;99.90;;;-144.05;76.30;125687.94;5015618;28;20409;-78
2023/01/25 07:33:52;;;;;;;41.67;18.02;;;-0.20;99.90;;;-144.05;76.16;125687.94;5015366;28;20029;-81
2023/01/25 07:36:19;;;;;;;38.78;18.00;;;-0.20;99.90;;;-144.05;76.26;125687.94;5015562;28;20490;-79
2023/01/25 07:38:46;;;;;;;36.35;16.63;;;-0.20;99.90;;;-144.05;76.54;125687.94;5015153;28;20037;-79
2023/01/25 07:41:12;;;;;;;41.28;17.00;;;-0.20;99.90;;;-144.05;76.19;125687.94;5015504;28;20055;-79
2023/01/25 07:43:38;;;;;;;38.30;16.75;;;-0.30;99.90;;;-144.05;76.24;125687.94;4997558;28;20505;-80
2023/01/25 07:46:12;;;;;;;40.40;16.48;;;-0.30;99.90;;;-144.05;76.41;125687.94;4996852;28;20440;-80
2023/01/25 07:48:45;;;;;;;39.17;17.77;;;-0.30;99.90;;;-144.05;76.00;125687.94;5014177;28;20026;-81
2023/01/25 07:51:11;;;;;;;39.78;17.45;;;-0.30;99.90;;;-144.05;76.34;125687.94;5014693;28;20037;-80
2023/01/25 07:53:42;;;;;;;40.60;17.67;;;-0.30;99.90;;;-144.05;76.33;125687.94;5014754;28;20034;-78
2023/01/25 07:56:11;;;;;;;44.38;19.52;;;-0.30;99.90;;;-144.05;76.57;125687.94;4997010;28;20036;-79
2023/01/25 07:58:38;;;;;;;40.88;18.08;;;-0.30;99.90;;;-144.05;76.64;125687.94;4996971;28;20127;-79
2023/01/25 08:01:15;;;;;;;44.88;19.38;;;-0.30;99.90;;;-144.05;76.83;125687.94;5015046;28;20026;-80
2023/01/25 08:03:42;;;;;;;42.47;18.17;;;-0.30;99.90;;;-144.05;76.62;125687.94;4997648;28;20545;-80
2023/01/25 08:06:10;;;;;;;47.53;19.52;;;-0.30;99.90;;;-144.05;76.82;125687.94;5033704;28;20030;-78
2023/01/25 08:08:45;;;;;;;44.15;18.85;;;-0.30;99.90;;;-144.05;76.56;125687.94;5019990;28;20121;-79
2023/01/25 08:11:19;;;;;;;40.42;18.75;;;-0.30;99.90;;;-144.05;76.68;125687.94;5014977;28;20036;-79
2023/01/25 08:13:48;;;;;;;44.08;18.80;;;-0.20;99.90;;;-144.05;76.88;125687.94;5014675;28;20120;-81
2023/01/25 08:16:21;;;;;;;46.42;19.65;;;-0.20;99.90;;;-144.05;77.02;125687.94;5014632;28;20083;-81
2023/01/25 08:18:55;;;;;;;42.28;18.38;;;-0.20;99.90;;;-144.05;77.10;125687.94;5014459;28;20033;-78
2023/01/25 08:21:24;;;;;;;45.33;18.55;;;-0.20;99.90;;;-144.05;76.89;125687.94;5014256;28;20026;-79
2023/01/25 08:23:50;;;;;;;48.53;19.95;;;-0.20;99.90;;;-144.05;77.08;125687.94;4996007;28;20120;-80
2023/01/25 08:26:17;;;;;;;47.03;18.45;;;-0.20;99.90;;;-144.05;76.75;125687.94;5013928;28;20413;-80
2023/01/25 08:28:43;;;;;;;42.55;19.00;;;-0.20;99.90;;;-144.05;76.38;125687.94;5013861;28;20052;-80
2023/01/25 08:31:21;;;;;;;44.47;17.65;;;-0.30;99.90;;;-144.05;76.42;125687.94;4996105;28;20029;-80
2023/01/25 08:33:50;;;;;;;44.92;19.05;;;-0.30;99.90;;;-144.05;76.91;125687.94;4996427;28;20060;-80
2023/01/25 08:36:17;;;;;;;43.95;18.63;;;-0.30;99.90;;;-144.05;77.17;125687.94;5014083;28;20589;-80
2023/01/25 08:38:46;;;;;;;48.75;20.33;;;-0.30;99.90;;;-144.05;77.18;125687.94;4995690;28;20033;-81
2023/01/25 08:41:18;;;;;;;48.42;18.90;;;-0.30;99.90;;;-144.05;77.09;125687.94;5002717;28;20026;-82
2023/01/25 08:43:45;;;;;;;48.50;20.27;;;-0.30;99.90;;;-144.05;76.97;125687.94;5023602;28;20022;-81
2023/01/25 08:46:17;;;;;;;48.30;20.40;;;-0.30;99.90;;;-144.05;77.04;125687.94;5028903;28;20033;-80
2023/01/25 08:48:42;;;;;;;52.97;20.23;;;-0.20;99.90;;;-144.05;77.34;125687.94;5026764;28;20034;-82
2023/01/25 08:51:15;;;;;;;49.10;20.33;;;-0.20;99.90;;;-144.05;77.26;125687.94;5007273;28;20030;-82
2023/01/25 08:53:42;;;;;;;48.53;19.10;;;-0.20;99.90;;;-144.05;77.18;125687.94;5028842;28;20046;-82
2023/01/25 08:56:12;;;;;;;53.45;21.10;;;-0.20;99.90;;;-144.05;77.02;125687.94;5027743;28;20041;-81
2023/01/25 08:58:44;;;;;;;54.92;22.00;;;-0.20;99.90;;;-144.05;77.34;125687.94;5024085;28;20033;-81
2023/01/25 09:01:14;;;;;;;48.38;19.02;;;-0.20;99.90;;;-144.05;77.15;125687.94;5002310;28;20037;-79
2023/01/25 09:03:47;;;;;;;47.40;18.92;;;-0.20;99.90;;;-144.05;77.63;125687.94;5014348;28;20496;-79
2023/01/25 09:06:15;;;;;;;48.95;19.50;;;-0.20;99.90;;;-144.05;77.46;125687.94;4995058;28;20025;-79
2023/01/25 09:08:42;;;;;;;53.45;20.33;;;-0.20;99.90;;;-144.05;77.55;125687.94;5012337;28;20508;-79
2023/01/25 09:11:19;;;;;;;50.05;19.42;;;-0.20;99.90;;;-144.05;77.75;125687.94;5012651;28;20033;-80
2023/01/25 09:13:47;;;;;;;48.03;19.98;;;-0.10;99.90;;;-144.05;77.93;125687.94;5012714;28;20033;-80
2023/01/25 09:16:27;;;;;;;45.17;19.48;;;-0.10;99.90;;;-144.05;78.13;125687.94;4995364;28;20379;-81
2023/01/25 09:19:04;;;;;;;48.17;19.10;;;-0.20;99.90;;;-144.05;78.20;125687.94;4994786;28;20034;-79
2023/01/25 09:21:31;;;;;;;50.40;19.33;;;-0.20;99.90;;;-144.05;77.81;125687.94;5012733;28;20096;-79
2023/01/25 09:23:58;;;;;;;50.15;21.02;;;-0.10;99.90;;;-144.05;78.29;125687.94;5012549;28;20026;-80
2023/01/25 09:26:24;;;;;;;52.95;20.42;;;-0.20;99.90;;;-144.05;78.06;125687.94;5013614;28;20109;-79
2023/01/25 09:28:53;;;;;;;48.95;20.63;;;-0.10;99.90;;;-144.05;78.00;125687.94;5013158;28;20108;-78
2023/01/25 09:31:21;;;;;;;51.78;20.95;;;-0.10;99.90;;;-144.05;77.62;125687.94;5014082;28;20117;-79
2023/01/25 09:33:51;;;;;;;56.88;22.70;;;-0.10;99.90;;;-144.05;77.26;125687.94;5013746;28;20052;-79
2023/01/25 09:36:17;;;;;;;59.10;24.13;;;-0.10;99.90;;;-144.05;77.37;125687.94;4995692;28;20049;-78
2023/01/25 09:38:44;;;;;;;56.92;21.50;;;-0.10;99.90;;;-144.05;77.46;125687.94;4995505;28;20034;-79
2023/01/25 09:41:54;;;;;;;57.88;21.50;;;-0.10;99.90;;;-144.05;77.86;125687.94;4995960;28;20087;-79
2023/01/25 09:45:12;;;;;;;52.97;20.30;;;-0.10;99.90;;;-144.05;77.88;125687.94;4995748;28;20034;-79
2023/01/25 09:48:11;;;;;;;50.78;19.00;;;0.00;99.90;;;-144.05;77.53;125687.94;4990316;28;20413;-81
2023/01/25 09:51:15;;;;;;;50.88;20.98;;;0.00;99.90;;;-144.05;77.44;125687.94;4994668;28;20026;-80
2023/01/25 09:53:52;;;;;;;52.45;21.35;;;0.00;99.90;;;-144.05;77.79;125687.94;4959748;28;20462;-81
2023/01/25 09:56:32;;;;;;;61.30;23.05;;;0.00;99.90;;;-144.05;77.95;125687.94;4995657;28;20508;-79
2023/01/25 09:59:13;;;;;;;60.90;23.35;;;0.00;99.90;;;-144.05;77.68;125687.94;5013092;28;20438;-78
2023/01/25 10:02:12;;;;;;;53.08;21.33;;;0.00;99.90;;;-144.05;77.96;125687.94;5013035;28;20361;-81